AirNav   Pilot Hours Calculator
 
 1388 users online  

CA57 Blake Sky Park Airport
Vacaville, California, USA

GOING TO VACAVILLE?


FAA INFORMATION EFFECTIVE 25 FEBRUARY 2021

Location

FAA Identifier: CA57
Lat/Long: 38-27-29.6690N 122-02-43.8890W
38-27.494483N 122-02.731483W
38.4582414,-122.0455247
(estimated)
Elevation: 310 ft. / 94 m (estimated)
Variation: 16E (1985)
From city: 6 miles NW of VACAVILLE, CA
Time zone: UTC -8 (UTC -7 during Daylight Saving Time)
Zip code: 95688

Airport Operations

Airport use: Private use. Permission required prior to landing
Activation date: 08/1972
Control tower: no
ARTCC: OAKLAND CENTER
FSS: RANCHO MURIETA FLIGHT SERVICE STATION
Attendance: DAYLIGHT HOURS
Wind indicator: yes
Segmented circle: yes

Airport Communications

WX ASOS at VCB (6 nm SE): 134.75 (707-448-1594)
WX AWOS-3P at DWA (11 nm NE): 125.775 (530-750-2759)
WX AWOS-3 at EDU (13 nm E): 119.025 (530-754-6839)
WX ASOS at APC (18 nm SW): PHONE 707-252-7916

Nearby radio navigation aids

VOR radial/distance  VOR name  Freq  Var
SGDr026/22.8SCAGGS ISLAND VORTAC112.1017E
SACr255/23.2SACRAMENTO VORTAC115.2017E
CCRr343/24.8CONCORD VOR/DME117.0017E
MCCr230/32.6MC CLELLAN VOR/DME109.2017E
STSr079/36.1SANTA ROSA VOR/DME113.0016E
ILAr163/36.8WILLIAMS VORTAC114.4018E

Airport Services

Airframe service: MINOR
Powerplant service: MINOR

Runway Information

Runway 17/35

Dimensions: 1600 x 75 ft. / 488 x 23 m
Surface: turf
RUNWAY 17  RUNWAY 35
Traffic pattern: rightleft
Obstructions: 30 ft. plines, 400 ft. from runwaynone

Airport Ownership and Management from official FAA records

Ownership: Privately-owned
Owner: WM K BLAKE
8100 PLEASANTS VALLEY RD.
VACAVILLE, CA 95688
Phone 707-448-7280
Manager: WM K BLAKE
8100 PLEASANTS VALLEY RD.
VACAVILLE, CA 95688
Phone 707-448-7280

Airport Operational Statistics

Aircraft based on the field: 1
Helicopters: 1
    

Additional Remarks

FOR CD CTC OAKLAND ARTCC AT 510-745-3380.

Instrument Procedures

There are no published instrument procedures at CA57.

Some nearby airports with instrument procedures:

KVCB - Nut Tree Airport (6 nm SE)
KDWA - Yolo County Airport (11 nm NE)
KEDU - University Airport (13 nm E)
KSUU - Travis Air Force Base (13 nm SE)
O41 - Watts-Woodland Airport (15 nm NE)
KAPC - Napa County Airport (18 nm SW)
 
Loc | Ops | Rwys | IFR | FBO | Links
Com | Nav | Svcs | Stats | Notes

Sonoma Jet Center
 
Area around CA57 (Blake Sky Park Airport)
 
Road maps at: MapQuest Bing Google
 
Aerial photo
No photo
 
Sectional chart

 
Airport distance calculator
Flying to Blake Sky Park Airport? Find the distance to fly.

From to CA57

Sunrise and sunset
Times for 05-Mar-2021
 Local
(UTC-8)
 Zulu
(UTC)
Morning civil twilight06:0914:09
Sunrise06:3514:35
Sunset18:0402:04
Evening civil twilight18:3102:31

Current date and time
Zulu (UTC)  05-Mar-2021 16:23:04
Local (UTC-8)  05-Mar-2021 08:23:04
 
METAR
KVCB 
6nm SE 
051553Z AUTO 06005KT 10SM CLR 09/03 A3022 RMK AO2 SLP231 T00940033
KDWA 
11nm NE 
051555Z AUTO 00000KT 10SM CLR 07/04 A3022 RMK AO2
KEDU 
13nm E 
051555Z AUTO 00000KT 10SM CLR 08/05 A3022 RMK AO1
KSUU 
13nm SE 
051558Z AUTO 22008KT 10SM CLR 10/06 A3021 RMK AO2 SLP237 T01000058 $
KAPC 
19nm SW 
051554Z 34005KT 10SM CLR 07/04 A3023 RMK AO2 SLP227 T00670044
TAF
KSUU 
13nm SE 
051100Z 0511/0617 24009KT 9999 SCT200 QNH3019INS BECMG 0601/0602 24012G18KT 9999 FEW040 SCT120 BKN200 QNH3005INS BECMG 0605/0606 24012G18KT 8000 -RA FEW010 BKN020 OVC100 QNH3002INS BECMG 0610/0611 31012G18KT 9999 NSW BKN010 OVC030 QNH3001INS BECMG 0613/0614 33009KT 9999 FEW010 BKN040 QNH3010INS TX18/0522Z TN03/0515Z
KAPC 
19nm SW 
051136Z 0512/0612 VRB04KT P6SM SKC FM051800 17009KT P6SM BKN040 FM052200 19012KT P6SM BKN040 FM060500 20012G20KT 6SM -RA BR BKN025 FM061000 22010KT 6SM BR BKN015
NOTAMs
Click for the latest NOTAMs
NOTAMs are issued by the DoD/FAA and will open in a separate window not controlled by AirNav.

 

 
 

Would you like to see your business listed on this page?

 If your business provides an interesting product or service to pilots, flight crews, aircraft, or users of the Blake Sky Park Airport, you should consider listing it here.  To start the listing process, click on the button below
 
Add a business
 

Other Pages about Blake Sky Park Airport

Update a link
 
Copyright © AirNav, LLC. All rights reserved. Privacy Policy  Contact